Airfield :
LOGIN :

Register | Disclaimer

   EN    FR    IT 

 










Legend :    VFR   Marginal VFR   IFR   Intensive IFR   Very Intensive IFR
Visi :
Ceiling :
>= 8 km
>= 3000ft
5 to 8 km
1000 to 3000 ft
1500m to 5 km
500 to 1000 ft
800 to 1500m
200 to 500 ft
< 800m
< 200 ft
Symbols :   Thunderstorms  Fog  Heavy snow  Heavy precipitations  Wind > 20 kt
SIGMETs :     Misc.  Thunderstorms  Icing  Turbulence  Mountain Waves  Volcanic Ashes






- Airport Elevation : 465 ft
- IATA code : LEJ


EDDP - Leipzig Halle

CURRENT METAR :
  • 042350Z 32005KT 4000 BR OVC004 02/01 Q1018 TEMPO 2500

EXPIRED METARs :
  • 042320Z 32004KT 3500 -DZ BR BKN003 01/01 Q1018 TEMPO 2500
  • 042250Z 33004KT 6000 BKN006 01/01 Q1017 TEMPO 4500 -DZRA BKN004
  • 042220Z 35005KT 5000 -SNRA BKN004 OVC009 01/01 Q1017 TEMPO 4500 -DZRA BKN005
  • 042150Z 34008KT 6000 -RA BKN004 01/01 Q1017 TEMPO 4500 -DZRA BKN005
  • 042120Z 33005KT 8000 -RA SCT004 OVC014 02/01 Q1017 TEMPO 4500 -DZRA BKN004

TAF TAF EDDP
Valid from the 05 at 00:00 until the 06 at 00:00 UTC


042300Z 0500/0524 36007KT 6000 BKN008
TEMPO 0500/0508 2500 -RADZ BR BKN004
BECMG 0508/0511 SCT025
BECMG 0520/0523 29004KT



MET'MAP, your aeronautical weather chart ! - Copyright ORBIFLY December 2007 - Disclaimer

ORBIFLY MET'MAP TEAM :

Programming & Development : Alexandra Zaïnal
Concept & original design : Baudouin d'Aumeries
Assistance for programming : Marc-Olivier Méhu
Technical & hardware support : Manuel Goepfert

Contact : metmap@orbifly.com




SOURCES & CREDITS :

   NOAA